sensor_id;sensor_type;location;lat;lon;timestamp;pressure;altitude;pressure_sealevel;temperature;humidity
76060;BME280;64759;52.220;5.170;2023-01-19T00:02:21;99916.13;;;2.62;86.29
76060;BME280;64759;52.220;5.170;2023-01-19T00:04:47;99913.66;;;2.49;87.05
76060;BME280;64759;52.220;5.170;2023-01-19T00:07:12;99901.00;;;2.59;87.24
76060;BME280;64759;52.220;5.170;2023-01-19T00:09:38;99894.97;;;2.60;87.10
76060;BME280;64759;52.220;5.170;2023-01-19T00:12:04;99890.81;;;2.70;87.10
76060;BME280;64759;52.220;5.170;2023-01-19T00:14:29;99878.13;;;2.69;87.92
76060;BME280;64759;52.220;5.170;2023-01-19T00:16:55;99876.53;;;2.79;87.58
76060;BME280;64759;52.220;5.170;2023-01-19T00:19:21;99879.69;;;2.82;88.07
76060;BME280;64759;52.220;5.170;2023-01-19T00:21:46;99882.00;;;2.96;87.51
76060;BME280;64759;52.220;5.170;2023-01-19T00:24:12;99876.09;;;3.07;87.48
76060;BME280;64759;52.220;5.170;2023-01-19T00:26:39;99884.56;;;3.07;87.09
76060;BME280;64759;52.220;5.170;2023-01-19T00:29:05;99888.06;;;3.06;87.23
76060;BME280;64759;52.220;5.170;2023-01-19T00:31:32;99895.03;;;3.04;88.14
76060;BME280;64759;52.220;5.170;2023-01-19T00:34:01;99887.00;;;3.09;88.31
76060;BME280;64759;52.220;5.170;2023-01-19T00:36:27;99891.78;;;3.13;88.61
76060;BME280;64759;52.220;5.170;2023-01-19T00:38:52;99889.91;;;3.15;88.21
76060;BME280;64759;52.220;5.170;2023-01-19T00:41:18;99888.50;;;3.22;87.68
76060;BME280;64759;52.220;5.170;2023-01-19T00:43:43;99890.03;;;3.25;87.83
76060;BME280;64759;52.220;5.170;2023-01-19T00:46:09;99887.81;;;3.20;87.89
76060;BME280;64759;52.220;5.170;2023-01-19T00:48:34;99890.84;;;3.25;87.83
76060;BME280;64759;52.220;5.170;2023-01-19T00:50:59;99894.91;;;3.28;87.57
76060;BME280;64759;52.220;5.170;2023-01-19T00:53:25;99902.25;;;3.21;87.74
76060;BME280;64759;52.220;5.170;2023-01-19T00:55:52;99897.72;;;3.14;87.90
76060;BME280;64759;52.220;5.170;2023-01-19T00:58:17;99889.81;;;3.06;88.19
76060;BME280;64759;52.220;5.170;2023-01-19T01:00:43;99888.19;;;3.16;88.03
76060;BME280;64759;52.220;5.170;2023-01-19T01:03:09;99889.00;;;3.16;88.00
76060;BME280;64759;52.220;5.170;2023-01-19T01:05:34;99889.09;;;3.26;87.98
76060;BME280;64759;52.220;5.170;2023-01-19T01:08:00;99893.19;;;3.28;87.91
76060;BME280;64759;52.220;5.170;2023-01-19T01:10:27;99892.47;;;3.26;88.21
76060;BME280;64759;52.220;5.170;2023-01-19T01:12:53;99892.81;;;3.33;87.83
76060;BME280;64759;52.220;5.170;2023-01-19T01:15:19;99895.25;;;3.35;88.14
76060;BME280;64759;52.220;5.170;2023-01-19T01:17:46;99907.81;;;3.38;88.28
76060;BME280;64759;52.220;5.170;2023-01-19T01:20:13;99902.81;;;3.36;88.39
76060;BME280;64759;52.220;5.170;2023-01-19T01:22:41;99892.91;;;3.43;88.26
76060;BME280;64759;52.220;5.170;2023-01-19T01:25:10;99904.44;;;3.37;88.61
76060;BME280;64759;52.220;5.170;2023-01-19T01:27:36;99905.84;;;3.41;88.51
76060;BME280;64759;52.220;5.170;2023-01-19T01:30:02;99899.22;;;3.39;88.17
76060;BME280;64759;52.220;5.170;2023-01-19T01:32:27;99895.94;;;3.48;88.60
76060;BME280;64759;52.220;5.170;2023-01-19T01:34:53;99895.72;;;3.51;88.49
76060;BME280;64759;52.220;5.170;2023-01-19T01:37:18;99895.59;;;3.52;88.75
76060;BME280;64759;52.220;5.170;2023-01-19T01:39:44;99893.03;;;3.63;88.19
76060;BME280;64759;52.220;5.170;2023-01-19T01:42:19;99905.59;;;3.55;88.59
76060;BME280;64759;52.220;5.170;2023-01-19T01:44:54;99906.41;;;3.56;89.10
76060;BME280;64759;52.220;5.170;2023-01-19T01:47:26;99908.97;;;3.56;89.11
76060;BME280;64759;52.220;5.170;2023-01-19T01:49:59;99916.06;;;3.63;88.95
76060;BME280;64759;52.220;5.170;2023-01-19T01:52:25;99918.34;;;3.66;88.99
76060;BME280;64759;52.220;5.170;2023-01-19T01:54:53;99924.16;;;3.79;88.69
76060;BME280;64759;52.220;5.170;2023-01-19T01:57:18;99927.78;;;3.77;88.09
76060;BME280;64759;52.220;5.170;2023-01-19T01:59:45;99920.88;;;3.88;88.75
76060;BME280;64759;52.220;5.170;2023-01-19T02:02:24;99932.84;;;3.99;87.86
76060;BME280;64759;52.220;5.170;2023-01-19T02:05:15;99925.28;;;3.97;87.64
76060;BME280;64759;52.220;5.170;2023-01-19T02:07:49;99935.31;;;3.89;87.36
76060;BME280;64759;52.220;5.170;2023-01-19T02:10:37;99926.13;;;3.87;87.14
76060;BME280;64759;52.220;5.170;2023-01-19T02:13:21;99920.91;;;3.77;86.60
76060;BME280;64759;52.220;5.170;2023-01-19T02:15:50;99923.72;;;3.74;85.56
76060;BME280;64759;52.220;5.170;2023-01-19T02:18:17;99934.53;;;3.78;85.78
76060;BME280;64759;52.220;5.170;2023-01-19T02:20:49;99934.28;;;3.81;86.47
76060;BME280;64759;52.220;5.170;2023-01-19T02:26:19;99960.25;;;3.76;86.17
76060;BME280;64759;52.220;5.170;2023-01-19T02:28:48;99955.47;;;3.72;85.91
76060;BME280;64759;52.220;5.170;2023-01-19T02:31:15;99978.53;;;3.83;86.50
76060;BME280;64759;52.220;5.170;2023-01-19T02:33:41;99974.66;;;3.88;86.26
76060;BME280;64759;52.220;5.170;2023-01-19T02:36:08;99983.41;;;3.86;86.36
76060;BME280;64759;52.220;5.170;2023-01-19T02:38:35;99971.31;;;3.88;86.34
76060;BME280;64759;52.220;5.170;2023-01-19T02:41:05;99981.56;;;3.88;85.65
76060;BME280;64759;52.220;5.170;2023-01-19T02:43:32;99987.81;;;3.84;85.57
76060;BME280;64759;52.220;5.170;2023-01-19T02:45:57;99993.63;;;3.86;85.41
76060;BME280;64759;52.220;5.170;2023-01-19T02:48:23;99994.22;;;3.89;85.39
76060;BME280;64759;52.220;5.170;2023-01-19T02:50:53;99992.59;;;3.88;85.62
76060;BME280;64759;52.220;5.170;2023-01-19T02:56:38;99986.53;;;3.78;85.27
76060;BME280;64759;52.220;5.170;2023-01-19T02:59:25;99983.97;;;3.78;84.63
76060;BME280;64759;52.220;5.170;2023-01-19T03:10:30;99966.25;;;4.09;83.74
76060;BME280;64759;52.220;5.170;2023-01-19T03:13:37;99975.44;;;4.11;83.55
76060;BME280;64759;52.220;5.170;2023-01-19T03:16:19;100008.50;;;4.03;82.26
76060;BME280;64759;52.220;5.170;2023-01-19T03:18:50;99996.34;;;3.95;82.19
76060;BME280;64759;52.220;5.170;2023-01-19T03:21:18;100005.75;;;3.95;82.78
76060;BME280;64759;52.220;5.170;2023-01-19T03:23:46;99998.84;;;4.07;82.33
76060;BME280;64759;52.220;5.170;2023-01-19T03:26:20;99992.00;;;4.07;82.43
76060;BME280;64759;52.220;5.170;2023-01-19T03:28:50;100003.28;;;3.93;83.09
76060;BME280;64759;52.220;5.170;2023-01-19T03:31:19;100008.69;;;3.90;83.50
76060;BME280;64759;52.220;5.170;2023-01-19T03:33:51;100010.19;;;3.82;84.04
76060;BME280;64759;52.220;5.170;2023-01-19T03:36:26;100012.06;;;3.80;84.16
76060;BME280;64759;52.220;5.170;2023-01-19T03:38:55;100009.50;;;3.80;84.61
76060;BME280;64759;52.220;5.170;2023-01-19T03:41:23;100020.56;;;3.80;84.15
76060;BME280;64759;52.220;5.170;2023-01-19T03:43:50;100027.28;;;3.81;84.65
76060;BME280;64759;52.220;5.170;2023-01-19T03:46:18;100040.22;;;3.80;84.61
76060;BME280;64759;52.220;5.170;2023-01-19T03:48:45;100042.53;;;3.72;84.46
76060;BME280;64759;52.220;5.170;2023-01-19T03:51:11;100029.03;;;3.70;84.27
76060;BME280;64759;52.220;5.170;2023-01-19T03:53:39;100041.72;;;3.60;84.57
76060;BME280;64759;52.220;5.170;2023-01-19T03:56:05;100045.69;;;3.53;84.57
76060;BME280;64759;52.220;5.170;2023-01-19T03:58:30;100050.00;;;3.53;84.40
76060;BME280;64759;52.220;5.170;2023-01-19T04:00:56;100047.19;;;3.45;83.94
76060;BME280;64759;52.220;5.170;2023-01-19T04:03:21;100046.13;;;3.36;84.25
76060;BME280;64759;52.220;5.170;2023-01-19T04:05:47;100043.69;;;3.46;84.32
76060;BME280;64759;52.220;5.170;2023-01-19T04:08:12;100048.69;;;3.47;84.24
76060;BME280;64759;52.220;5.170;2023-01-19T04:10:38;100044.84;;;3.42;84.01
76060;BME280;64759;52.220;5.170;2023-01-19T04:13:04;100050.56;;;3.34;84.63
76060;BME280;64759;52.220;5.170;2023-01-19T04:15:30;100054.16;;;3.32;84.88
76060;BME280;64759;52.220;5.170;2023-01-19T04:17:57;100059.97;;;3.34;84.96
76060;BME280;64759;52.220;5.170;2023-01-19T04:20:22;100046.81;;;3.38;84.39
76060;BME280;64759;52.220;5.170;2023-01-19T04:22:48;100056.59;;;3.33;84.58
76060;BME280;64759;52.220;5.170;2023-01-19T04:25:14;100062.00;;;3.17;85.25
76060;BME280;64759;52.220;5.170;2023-01-19T04:27:39;100062.97;;;3.27;85.07
76060;BME280;64759;52.220;5.170;2023-01-19T04:30:05;100061.94;;;3.30;84.60
76060;BME280;64759;52.220;5.170;2023-01-19T04:32:34;100068.47;;;3.34;84.73
76060;BME280;64759;52.220;5.170;2023-01-19T04:34:59;100062.63;;;3.21;84.64
76060;BME280;64759;52.220;5.170;2023-01-19T04:37:24;100064.81;;;3.14;84.82
76060;BME280;64759;52.220;5.170;2023-01-19T04:39:50;100065.25;;;3.08;85.24
76060;BME280;64759;52.220;5.170;2023-01-19T04:42:15;100067.72;;;3.21;84.60
76060;BME280;64759;52.220;5.170;2023-01-19T04:44:41;100082.88;;;3.24;84.71
76060;BME280;64759;52.220;5.170;2023-01-19T04:47:06;100079.00;;;3.29;84.87
76060;BME280;64759;52.220;5.170;2023-01-19T04:49:32;100083.91;;;3.33;84.33
76060;BME280;64759;52.220;5.170;2023-01-19T04:52:03;100095.88;;;3.32;84.39
76060;BME280;64759;52.220;5.170;2023-01-19T04:54:29;100093.25;;;3.45;84.03
76060;BME280;64759;52.220;5.170;2023-01-19T04:56:54;100097.44;;;3.46;83.84
76060;BME280;64759;52.220;5.170;2023-01-19T04:59:20;100100.69;;;3.48;84.50
76060;BME280;64759;52.220;5.170;2023-01-19T05:01:45;100094.31;;;3.53;83.95
76060;BME280;64759;52.220;5.170;2023-01-19T05:04:11;100095.38;;;3.51;84.51
76060;BME280;64759;52.220;5.170;2023-01-19T05:06:36;100102.34;;;3.60;84.17
76060;BME280;64759;52.220;5.170;2023-01-19T05:09:03;100110.16;;;3.58;84.28
76060;BME280;64759;52.220;5.170;2023-01-19T05:11:28;100108.72;;;3.54;84.03
76060;BME280;64759;52.220;5.170;2023-01-19T05:13:54;100115.28;;;3.58;84.33
76060;BME280;64759;52.220;5.170;2023-01-19T05:16:19;100109.25;;;3.70;84.04
76060;BME280;64759;52.220;5.170;2023-01-19T05:18:45;100102.47;;;3.69;84.18
76060;BME280;64759;52.220;5.170;2023-01-19T05:21:10;100115.03;;;3.61;84.07
76060;BME280;64759;52.220;5.170;2023-01-19T05:23:36;100109.34;;;3.69;84.17
76060;BME280;64759;52.220;5.170;2023-01-19T05:26:02;100117.16;;;3.67;84.09
76060;BME280;64759;52.220;5.170;2023-01-19T05:28:29;100109.69;;;3.64;84.16
76060;BME280;64759;52.220;5.170;2023-01-19T05:30:54;100111.78;;;3.59;83.99
76060;BME280;64759;52.220;5.170;2023-01-19T05:33:21;100109.47;;;3.67;83.89
76060;BME280;64759;52.220;5.170;2023-01-19T05:35:51;100109.13;;;3.83;83.72
76060;BME280;64759;52.220;5.170;2023-01-19T05:38:17;100113.22;;;3.85;83.82
76060;BME280;64759;52.220;5.170;2023-01-19T05:40:42;100108.31;;;3.93;84.01
76060;BME280;64759;52.220;5.170;2023-01-19T05:43:08;100112.16;;;3.99;83.25
76060;BME280;64759;52.220;5.170;2023-01-19T05:45:34;100121.22;;;4.03;83.40
76060;BME280;64759;52.220;5.170;2023-01-19T05:47:59;100123.09;;;4.01;82.80
76060;BME280;64759;52.220;5.170;2023-01-19T05:50:25;100119.84;;;3.99;82.59
76060;BME280;64759;52.220;5.170;2023-01-19T05:52:50;100127.41;;;4.01;82.57
76060;BME280;64759;52.220;5.170;2023-01-19T05:55:19;100127.19;;;4.04;82.03
76060;BME280;64759;52.220;5.170;2023-01-19T05:57:44;100134.78;;;4.05;81.82
76060;BME280;64759;52.220;5.170;2023-01-19T06:00:10;100143.03;;;4.09;81.78
76060;BME280;64759;52.220;5.170;2023-01-19T06:02:36;100142.78;;;4.12;81.89
76060;BME280;64759;52.220;5.170;2023-01-19T06:05:01;100145.13;;;4.15;81.64
76060;BME280;64759;52.220;5.170;2023-01-19T06:07:27;100152.34;;;4.21;81.23
76060;BME280;64759;52.220;5.170;2023-01-19T06:09:52;100154.81;;;4.22;81.08
76060;BME280;64759;52.220;5.170;2023-01-19T06:12:18;100150.72;;;4.20;81.47
76060;BME280;64759;52.220;5.170;2023-01-19T06:14:43;100157.22;;;4.24;80.91
76060;BME280;64759;52.220;5.170;2023-01-19T06:17:09;100164.69;;;4.27;81.43
76060;BME280;64759;52.220;5.170;2023-01-19T06:19:34;100162.38;;;4.24;80.74
76060;BME280;64759;52.220;5.170;2023-01-19T06:22:00;100163.88;;;4.26;81.43
76060;BME280;64759;52.220;5.170;2023-01-19T06:24:25;100166.44;;;4.26;81.02
76060;BME280;64759;52.220;5.170;2023-01-19T06:26:52;100171.69;;;4.25;80.38
76060;BME280;64759;52.220;5.170;2023-01-19T06:29:18;100176.56;;;4.28;80.74
76060;BME280;64759;52.220;5.170;2023-01-19T06:31:43;100173.06;;;4.29;80.92
76060;BME280;64759;52.220;5.170;2023-01-19T06:34:09;100182.03;;;4.23;80.14
76060;BME280;64759;52.220;5.170;2023-01-19T06:36:34;100185.28;;;4.25;80.44
76060;BME280;64759;52.220;5.170;2023-01-19T06:39:00;100188.59;;;4.27;79.80
76060;BME280;64759;52.220;5.170;2023-01-19T06:41:29;100189.16;;;4.31;79.90
76060;BME280;64759;52.220;5.170;2023-01-19T06:43:54;100190.66;;;4.33;80.41
76060;BME280;64759;52.220;5.170;2023-01-19T06:46:19;100200.09;;;4.33;79.91
76060;BME280;64759;52.220;5.170;2023-01-19T06:48:45;100192.66;;;4.30;79.57
76060;BME280;64759;52.220;5.170;2023-01-19T06:51:10;100206.41;;;4.29;79.50
76060;BME280;64759;52.220;5.170;2023-01-19T06:53:36;100209.31;;;4.24;80.07
76060;BME280;64759;52.220;5.170;2023-01-19T06:56:02;100206.16;;;4.21;79.99
76060;BME280;64759;52.220;5.170;2023-01-19T06:58:30;100216.19;;;4.13;79.71
76060;BME280;64759;52.220;5.170;2023-01-19T07:01:01;100209.53;;;4.10;79.73
76060;BME280;64759;52.220;5.170;2023-01-19T07:03:27;100219.66;;;4.12;80.22
76060;BME280;64759;52.220;5.170;2023-01-19T07:05:53;100223.75;;;4.14;80.04
76060;BME280;64759;52.220;5.170;2023-01-19T07:08:19;100226.31;;;4.14;79.81
76060;BME280;64759;52.220;5.170;2023-01-19T07:10:44;100227.34;;;4.12;79.99
76060;BME280;64759;52.220;5.170;2023-01-19T07:13:10;100234.22;;;4.11;79.50
76060;BME280;64759;52.220;5.170;2023-01-19T07:15:36;100240.16;;;4.12;79.75
76060;BME280;64759;52.220;5.170;2023-01-19T07:18:02;100239.94;;;4.15;80.28
76060;BME280;64759;52.220;5.170;2023-01-19T07:20:32;100245.63;;;4.18;80.01
76060;BME280;64759;52.220;5.170;2023-01-19T07:22:57;100252.41;;;4.19;79.41
76060;BME280;64759;52.220;5.170;2023-01-19T07:25:23;100259.75;;;4.24;79.65
76060;BME280;64759;52.220;5.170;2023-01-19T07:27:48;100258.09;;;4.23;79.82
76060;BME280;64759;52.220;5.170;2023-01-19T07:30:14;100264.66;;;4.27;80.27
76060;BME280;64759;52.220;5.170;2023-01-19T07:32:42;100269.56;;;4.30;80.09
76060;BME280;64759;52.220;5.170;2023-01-19T07:35:08;100273.03;;;4.29;80.34
76060;BME280;64759;52.220;5.170;2023-01-19T07:37:34;100277.69;;;4.24;80.29
76060;BME280;64759;52.220;5.170;2023-01-19T07:40:00;100286.16;;;4.13;79.69
76060;BME280;64759;52.220;5.170;2023-01-19T07:42:25;100286.97;;;4.14;79.94
76060;BME280;64759;52.220;5.170;2023-01-19T07:44:51;100293.75;;;4.15;80.08
76060;BME280;64759;52.220;5.170;2023-01-19T07:47:17;100291.19;;;4.15;80.01
76060;BME280;64759;52.220;5.170;2023-01-19T07:49:42;100288.16;;;4.21;79.87
76060;BME280;64759;52.220;5.170;2023-01-19T07:52:08;100300.75;;;4.24;79.23
76060;BME280;64759;52.220;5.170;2023-01-19T07:54:33;100307.28;;;4.28;79.52
76060;BME280;64759;52.220;5.170;2023-01-19T07:56:59;100300.19;;;4.31;79.14
76060;BME280;64759;52.220;5.170;2023-01-19T07:59:26;100312.09;;;4.32;79.23
76060;BME280;64759;52.220;5.170;2023-01-19T08:01:51;100314.25;;;4.26;80.03
76060;BME280;64759;52.220;5.170;2023-01-19T08:04:18;100319.38;;;4.15;80.15
76060;BME280;64759;52.220;5.170;2023-01-19T08:06:45;100312.25;;;4.07;80.05
76060;BME280;64759;52.220;5.170;2023-01-19T08:09:11;100320.03;;;4.06;80.10
76060;BME280;64759;52.220;5.170;2023-01-19T08:11:37;100319.53;;;4.01;80.64
76060;BME280;64759;52.220;5.170;2023-01-19T08:14:02;100326.66;;;3.97;80.64
76060;BME280;64759;52.220;5.170;2023-01-19T08:16:28;100330.94;;;3.96;80.86
76060;BME280;64759;52.220;5.170;2023-01-19T08:18:53;100332.69;;;3.96;80.63
76060;BME280;64759;52.220;5.170;2023-01-19T08:21:19;100340.72;;;3.91;81.20
76060;BME280;64759;52.220;5.170;2023-01-19T08:23:51;100343.41;;;3.90;80.71
76060;BME280;64759;52.220;5.170;2023-01-19T08:26:28;100349.44;;;3.89;81.06
76060;BME280;64759;52.220;5.170;2023-01-19T08:28:55;100356.78;;;3.93;80.81
76060;BME280;64759;52.220;5.170;2023-01-19T08:31:23;100357.13;;;3.89;80.87
76060;BME280;64759;52.220;5.170;2023-01-19T08:33:48;100358.75;;;3.90;80.50
76060;BME280;64759;52.220;5.170;2023-01-19T08:36:14;100369.72;;;3.92;80.57
76060;BME280;64759;52.220;5.170;2023-01-19T08:38:39;100373.78;;;3.94;80.61
76060;BME280;64759;52.220;5.170;2023-01-19T08:41:09;100367.75;;;3.95;80.32
76060;BME280;64759;52.220;5.170;2023-01-19T08:43:34;100375.31;;;3.97;79.81
76060;BME280;64759;52.220;5.170;2023-01-19T08:46:00;100378.16;;;4.05;79.17
76060;BME280;64759;52.220;5.170;2023-01-19T08:48:25;100382.41;;;3.93;78.06
76060;BME280;64759;52.220;5.170;2023-01-19T08:50:51;100380.66;;;3.94;78.27
76060;BME280;64759;52.220;5.170;2023-01-19T08:53:17;100385.69;;;3.95;77.91
76060;BME280;64759;52.220;5.170;2023-01-19T08:55:45;100391.19;;;4.02;77.46
76060;BME280;64759;52.220;5.170;2023-01-19T08:58:10;100388.00;;;3.98;77.04
76060;BME280;64759;52.220;5.170;2023-01-19T09:00:37;100395.28;;;4.05;77.93
76060;BME280;64759;52.220;5.170;2023-01-19T09:03:04;100395.69;;;3.98;77.90
76060;BME280;64759;52.220;5.170;2023-01-19T09:05:31;100398.97;;;4.01;77.75
76060;BME280;64759;52.220;5.170;2023-01-19T09:08:00;100401.25;;;4.16;78.13
76060;BME280;64759;52.220;5.170;2023-01-19T09:10:27;100398.25;;;4.22;77.94
76060;BME280;64759;52.220;5.170;2023-01-19T09:12:56;100406.78;;;4.34;78.05
76060;BME280;64759;52.220;5.170;2023-01-19T09:15:22;100404.88;;;4.59;78.40
76060;BME280;64759;52.220;5.170;2023-01-19T09:17:48;100409.03;;;5.06;77.19
76060;BME280;64759;52.220;5.170;2023-01-19T09:20:13;100407.97;;;5.53;76.78
76060;BME280;64759;52.220;5.170;2023-01-19T09:22:38;100410.63;;;5.74;75.25
76060;BME280;64759;52.220;5.170;2023-01-19T09:25:06;100406.97;;;5.87;75.05
76060;BME280;64759;52.220;5.170;2023-01-19T09:27:31;100414.84;;;6.18;74.13
76060;BME280;64759;52.220;5.170;2023-01-19T09:29:57;100411.41;;;6.49;72.56
76060;BME280;64759;52.220;5.170;2023-01-19T09:32:23;100410.13;;;6.75;70.37
76060;BME280;64759;52.220;5.170;2023-01-19T09:34:48;100413.09;;;7.01;70.51
76060;BME280;64759;52.220;5.170;2023-01-19T09:37:13;100413.44;;;7.57;70.30
76060;BME280;64759;52.220;5.170;2023-01-19T09:39:41;100412.59;;;8.06;68.26
76060;BME280;64759;52.220;5.170;2023-01-19T09:42:28;100410.19;;;8.42;63.96
76060;BME280;64759;52.220;5.170;2023-01-19T09:44:55;100422.75;;;8.55;64.81
76060;BME280;64759;52.220;5.170;2023-01-19T09:47:25;100420.19;;;8.74;63.52
76060;BME280;64759;52.220;5.170;2023-01-19T09:50:20;100429.72;;;8.54;62.13
76060;BME280;64759;52.220;5.170;2023-01-19T09:53:15;100424.81;;;8.13;64.99
76060;BME280;64759;52.220;5.170;2023-01-19T09:55:40;100430.09;;;7.53;65.39
76060;BME280;64759;52.220;5.170;2023-01-19T09:58:14;100433.84;;;7.30;66.23
76060;BME280;64759;52.220;5.170;2023-01-19T10:01:01;100427.75;;;6.80;66.76
76060;BME280;64759;52.220;5.170;2023-01-19T10:03:31;100432.31;;;6.76;67.87
76060;BME280;64759;52.220;5.170;2023-01-19T10:06:01;100433.69;;;6.59;67.05
76060;BME280;64759;52.220;5.170;2023-01-19T10:08:51;100439.94;;;6.25;67.07
76060;BME280;64759;52.220;5.170;2023-01-19T10:11:38;100438.81;;;6.18;67.96
76060;BME280;64759;52.220;5.170;2023-01-19T10:14:12;100436.16;;;6.09;67.72
76060;BME280;64759;52.220;5.170;2023-01-19T10:17:00;100430.47;;;5.94;66.65
76060;BME280;64759;52.220;5.170;2023-01-19T10:19:32;100432.16;;;6.05;66.35
76060;BME280;64759;52.220;5.170;2023-01-19T10:22:12;100437.31;;;6.05;67.05
76060;BME280;64759;52.220;5.170;2023-01-19T10:24:42;100442.81;;;6.11;66.76
76060;BME280;64759;52.220;5.170;2023-01-19T10:27:15;100443.00;;;6.51;66.01
76060;BME280;64759;52.220;5.170;2023-01-19T10:29:42;100446.38;;;7.53;64.97
76060;BME280;64759;52.220;5.170;2023-01-19T10:32:13;100452.28;;;8.52;61.28
76060;BME280;64759;52.220;5.170;2023-01-19T10:34:41;100462.06;;;9.51;59.48
76060;BME280;64759;52.220;5.170;2023-01-19T10:39:41;100455.00;;;10.86;54.64
76060;BME280;64759;52.220;5.170;2023-01-19T10:42:12;100452.00;;;11.33;50.45
76060;BME280;64759;52.220;5.170;2023-01-19T10:44:39;100454.41;;;10.14;50.73
76060;BME280;64759;52.220;5.170;2023-01-19T10:47:13;100453.25;;;9.44;53.23
76060;BME280;64759;52.220;5.170;2023-01-19T10:49:41;100451.56;;;8.50;55.27
76060;BME280;64759;52.220;5.170;2023-01-19T10:54:51;100454.25;;;9.61;54.93
76060;BME280;64759;52.220;5.170;2023-01-19T10:57:27;100450.34;;;10.29;52.47
76060;BME280;64759;52.220;5.170;2023-01-19T10:59:52;100446.28;;;10.26;51.98
76060;BME280;64759;52.220;5.170;2023-01-19T11:02:20;100449.41;;;10.73;51.64
76060;BME280;64759;52.220;5.170;2023-01-19T11:04:49;100449.34;;;11.16;50.23
76060;BME280;64759;52.220;5.170;2023-01-19T11:07:18;100439.78;;;11.51;48.92
76060;BME280;64759;52.220;5.170;2023-01-19T11:09:45;100456.75;;;11.71;48.68
76060;BME280;64759;52.220;5.170;2023-01-19T11:12:19;100455.97;;;11.78;48.07
76060;BME280;64759;52.220;5.170;2023-01-19T11:14:46;100452.16;;;10.97;48.54
76060;BME280;64759;52.220;5.170;2023-01-19T11:17:25;100452.91;;;9.84;51.06
76060;BME280;64759;52.220;5.170;2023-01-19T11:19:58;100465.31;;;9.16;54.04
76060;BME280;64759;52.220;5.170;2023-01-19T11:22:27;100452.81;;;8.27;56.96
76060;BME280;64759;52.220;5.170;2023-01-19T11:24:58;100452.34;;;8.03;57.28
76060;BME280;64759;52.220;5.170;2023-01-19T11:27:24;100454.22;;;8.01;56.53
76060;BME280;64759;52.220;5.170;2023-01-19T11:30:02;100448.69;;;8.15;56.46
76060;BME280;64759;52.220;5.170;2023-01-19T11:32:32;100459.00;;;8.06;56.93
76060;BME280;64759;52.220;5.170;2023-01-19T11:35:01;100452.56;;;7.81;56.20
76060;BME280;64759;52.220;5.170;2023-01-19T11:37:46;100457.41;;;7.65;58.06
76060;BME280;64759;52.220;5.170;2023-01-19T11:40:14;100451.50;;;7.83;56.87
76060;BME280;64759;52.220;5.170;2023-01-19T11:42:40;100459.47;;;7.71;56.97
76060;BME280;64759;52.220;5.170;2023-01-19T11:45:13;100466.97;;;7.93;57.41
76060;BME280;64759;52.220;5.170;2023-01-19T11:47:44;100463.97;;;7.88;56.42
76060;BME280;64759;52.220;5.170;2023-01-19T11:50:22;100467.44;;;8.17;57.06
76060;BME280;64759;52.220;5.170;2023-01-19T11:52:59;100463.19;;;7.97;56.21
76060;BME280;64759;52.220;5.170;2023-01-19T11:55:38;100465.66;;;8.18;55.94
76060;BME280;64759;52.220;5.170;2023-01-19T11:58:06;100471.06;;;7.96;56.11
76060;BME280;64759;52.220;5.170;2023-01-19T12:00:42;100467.06;;;7.72;56.14
76060;BME280;64759;52.220;5.170;2023-01-19T12:03:24;100468.50;;;7.56;56.64
76060;BME280;64759;52.220;5.170;2023-01-19T12:05:52;100462.16;;;7.69;56.39
76060;BME280;64759;52.220;5.170;2023-01-19T12:08:22;100471.78;;;7.67;56.36
76060;BME280;64759;52.220;5.170;2023-01-19T12:10:50;100468.56;;;7.75;56.35
76060;BME280;64759;52.220;5.170;2023-01-19T12:13:25;100472.00;;;7.55;56.66
76060;BME280;64759;52.220;5.170;2023-01-19T12:16:03;100465.81;;;7.67;56.99
76060;BME280;64759;52.220;5.170;2023-01-19T12:18:39;100460.28;;;7.32;56.50
76060;BME280;64759;52.220;5.170;2023-01-19T12:21:06;100460.88;;;6.94;57.09
76060;BME280;64759;52.220;5.170;2023-01-19T12:23:45;100456.78;;;6.91;58.50
76060;BME280;64759;52.220;5.170;2023-01-19T12:26:23;100457.00;;;6.58;59.39
76060;BME280;64759;52.220;5.170;2023-01-19T12:28:52;100462.00;;;6.59;60.50
76060;BME280;64759;52.220;5.170;2023-01-19T12:31:20;100463.31;;;6.54;60.51
76060;BME280;64759;52.220;5.170;2023-01-19T12:33:47;100459.13;;;6.53;60.85
76060;BME280;64759;52.220;5.170;2023-01-19T12:39:00;100460.56;;;6.67;58.90
76060;BME280;64759;52.220;5.170;2023-01-19T12:41:35;100459.81;;;6.76;59.92
76060;BME280;64759;52.220;5.170;2023-01-19T12:52:23;100479.66;;;6.32;58.34
76060;BME280;64759;52.220;5.170;2023-01-19T12:57:47;100481.75;;;6.27;58.41
76060;BME280;64759;52.220;5.170;2023-01-19T13:02:51;100479.50;;;6.02;59.01
76060;BME280;64759;52.220;5.170;2023-01-19T13:13:30;100473.53;;;6.44;58.85
76060;BME280;64759;52.220;5.170;2023-01-19T13:16:42;100468.69;;;6.30;56.84
76060;BME280;64759;52.220;5.170;2023-01-19T13:31:44;100477.06;;;6.43;56.08
76060;BME280;64759;52.220;5.170;2023-01-19T13:34:19;100486.66;;;6.30;56.20
76060;BME280;64759;52.220;5.170;2023-01-19T13:36:50;100481.53;;;6.30;55.00
76060;BME280;64759;52.220;5.170;2023-01-19T13:41:46;100487.00;;;7.70;52.74
76060;BME280;64759;52.220;5.170;2023-01-19T13:44:23;100490.78;;;7.36;53.26
76060;BME280;64759;52.220;5.170;2023-01-19T13:46:50;100487.44;;;6.94;54.79
76060;BME280;64759;52.220;5.170;2023-01-19T13:52:10;100495.50;;;6.48;56.71
76060;BME280;64759;52.220;5.170;2023-01-19T13:54:46;100502.56;;;6.24;56.71
76060;BME280;64759;52.220;5.170;2023-01-19T14:05:41;100512.19;;;6.54;56.99
76060;BME280;64759;52.220;5.170;2023-01-19T14:10:42;100513.34;;;7.23;55.73
76060;BME280;64759;52.220;5.170;2023-01-19T14:13:24;100513.09;;;7.26;54.88
76060;BME280;64759;52.220;5.170;2023-01-19T14:15:50;100511.53;;;6.93;55.39
76060;BME280;64759;52.220;5.170;2023-01-19T14:21:00;100514.72;;;6.65;57.00
76060;BME280;64759;52.220;5.170;2023-01-19T14:29:28;100530.16;;;6.22;57.96
76060;BME280;64759;52.220;5.170;2023-01-19T14:37:30;100537.31;;;6.08;57.91
76060;BME280;64759;52.220;5.170;2023-01-19T14:40:15;100538.41;;;5.94;57.34